sensor_id;sensor_type;location;lat;lon;timestamp;P1;durP1;ratioP1;P2;durP2;ratioP2
65924;SDS011;66010;52.084;5.412;2023-02-11T00:01:41;12.07;;;2.70;;
65924;SDS011;66010;52.084;5.412;2023-02-11T00:04:08;11.57;;;2.90;;
65924;SDS011;66010;52.084;5.412;2023-02-11T00:06:35;10.35;;;2.70;;
65924;SDS011;66010;52.084;5.412;2023-02-11T00:09:01;9.38;;;2.50;;
65924;SDS011;66010;52.084;5.412;2023-02-11T00:11:28;8.02;;;2.40;;
65924;SDS011;66010;52.084;5.412;2023-02-11T00:13:59;10.45;;;2.30;;
65924;SDS011;66010;52.084;5.412;2023-02-11T00:16:26;11.38;;;2.45;;
65924;SDS011;66010;52.084;5.412;2023-02-11T00:18:53;8.38;;;2.35;;
65924;SDS011;66010;52.084;5.412;2023-02-11T00:21:22;7.90;;;2.40;;
65924;SDS011;66010;52.084;5.412;2023-02-11T00:23:49;9.65;;;2.30;;
65924;SDS011;66010;52.084;5.412;2023-02-11T00:26:20;10.05;;;2.35;;
65924;SDS011;66010;52.084;5.412;2023-02-11T00:28:47;6.68;;;2.42;;
65924;SDS011;66010;52.084;5.412;2023-02-11T00:31:15;6.22;;;1.92;;
65924;SDS011;66010;52.084;5.412;2023-02-11T00:33:42;7.72;;;1.98;;
65924;SDS011;66010;52.084;5.412;2023-02-11T00:36:13;7.85;;;1.83;;
65924;SDS011;66010;52.084;5.412;2023-02-11T00:38:41;8.02;;;2.28;;
65924;SDS011;66010;52.084;5.412;2023-02-11T00:41:07;8.25;;;2.10;;
65924;SDS011;66010;52.084;5.412;2023-02-11T00:43:34;6.75;;;1.90;;
65924;SDS011;66010;52.084;5.412;2023-02-11T00:46:00;7.30;;;2.10;;
65924;SDS011;66010;52.084;5.412;2023-02-11T00:48:29;6.05;;;2.00;;
65924;SDS011;66010;52.084;5.412;2023-02-11T00:50:55;8.35;;;2.35;;
65924;SDS011;66010;52.084;5.412;2023-02-11T00:53:22;8.32;;;2.10;;
65924;SDS011;66010;52.084;5.412;2023-02-11T00:55:49;7.03;;;2.10;;
65924;SDS011;66010;52.084;5.412;2023-02-11T00:58:16;9.25;;;2.25;;
65924;SDS011;66010;52.084;5.412;2023-02-11T01:00:42;7.07;;;1.98;;
65924;SDS011;66010;52.084;5.412;2023-02-11T01:03:09;6.53;;;1.80;;
65924;SDS011;66010;52.084;5.412;2023-02-11T01:05:35;9.50;;;2.15;;
65924;SDS011;66010;52.084;5.412;2023-02-11T01:08:01;6.03;;;1.80;;
65924;SDS011;66010;52.084;5.412;2023-02-11T01:10:28;7.93;;;2.10;;
65924;SDS011;66010;52.084;5.412;2023-02-11T01:12:55;7.10;;;1.83;;
65924;SDS011;66010;52.084;5.412;2023-02-11T01:15:23;9.07;;;2.00;;
65924;SDS011;66010;52.084;5.412;2023-02-11T01:17:49;10.63;;;2.10;;
65924;SDS011;66010;52.084;5.412;2023-02-11T01:20:20;7.60;;;2.05;;
65924;SDS011;66010;52.084;5.412;2023-02-11T01:22:47;13.50;;;2.33;;
65924;SDS011;66010;52.084;5.412;2023-02-11T01:25:14;9.00;;;2.15;;
65924;SDS011;66010;52.084;5.412;2023-02-11T01:27:40;7.60;;;2.00;;
65924;SDS011;66010;52.084;5.412;2023-02-11T01:30:09;7.20;;;1.90;;
65924;SDS011;66010;52.084;5.412;2023-02-11T01:32:38;6.45;;;2.03;;
65924;SDS011;66010;52.084;5.412;2023-02-11T01:35:04;9.07;;;1.92;;
65924;SDS011;66010;52.084;5.412;2023-02-11T01:39:59;7.55;;;1.83;;
65924;SDS011;66010;52.084;5.412;2023-02-11T01:42:26;6.07;;;1.83;;
65924;SDS011;66010;52.084;5.412;2023-02-11T01:44:53;6.50;;;1.90;;
65924;SDS011;66010;52.084;5.412;2023-02-11T01:47:20;6.43;;;1.77;;
65924;SDS011;66010;52.084;5.412;2023-02-11T01:49:48;7.05;;;1.77;;
65924;SDS011;66010;52.084;5.412;2023-02-11T01:52:20;8.43;;;2.00;;
65924;SDS011;66010;52.084;5.412;2023-02-11T01:54:50;6.53;;;1.83;;
65924;SDS011;66010;52.084;5.412;2023-02-11T01:57:37;7.88;;;1.88;;
65924;SDS011;66010;52.084;5.412;2023-02-11T02:10:40;4.90;;;1.40;;
65924;SDS011;66010;52.084;5.412;2023-02-11T02:13:06;7.45;;;1.70;;
65924;SDS011;66010;52.084;5.412;2023-02-11T02:15:34;6.72;;;2.00;;
65924;SDS011;66010;52.084;5.412;2023-02-11T02:18:26;5.53;;;1.80;;
65924;SDS011;66010;52.084;5.412;2023-02-11T02:31:33;6.97;;;1.80;;
65924;SDS011;66010;52.084;5.412;2023-02-11T02:34:12;5.03;;;1.67;;
65924;SDS011;66010;52.084;5.412;2023-02-11T02:36:59;7.18;;;1.92;;
65924;SDS011;66010;52.084;5.412;2023-02-11T02:39:30;6.40;;;1.65;;
65924;SDS011;66010;52.084;5.412;2023-02-11T02:41:58;8.43;;;2.00;;
65924;SDS011;66010;52.084;5.412;2023-02-11T02:44:25;6.03;;;1.67;;
65924;SDS011;66010;52.084;5.412;2023-02-11T02:46:51;6.70;;;1.77;;
65924;SDS011;66010;52.084;5.412;2023-02-11T02:49:18;6.00;;;1.60;;
65924;SDS011;66010;52.084;5.412;2023-02-11T02:59:40;9.38;;;2.28;;
65924;SDS011;66010;52.084;5.412;2023-02-11T03:02:17;8.93;;;2.42;;
65924;SDS011;66010;52.084;5.412;2023-02-11T03:07:16;9.43;;;2.85;;
65924;SDS011;66010;52.084;5.412;2023-02-11T03:10:04;11.80;;;2.92;;
65924;SDS011;66010;52.084;5.412;2023-02-11T03:12:31;12.95;;;3.25;;
65924;SDS011;66010;52.084;5.412;2023-02-11T03:14:58;11.68;;;3.00;;
65924;SDS011;66010;52.084;5.412;2023-02-11T03:17:25;13.90;;;3.42;;
65924;SDS011;66010;52.084;5.412;2023-02-11T03:19:52;9.73;;;2.75;;
65924;SDS011;66010;52.084;5.412;2023-02-11T03:22:29;16.70;;;3.30;;
65924;SDS011;66010;52.084;5.412;2023-02-11T03:24:57;10.07;;;2.70;;
65924;SDS011;66010;52.084;5.412;2023-02-11T03:27:26;12.25;;;3.90;;
65924;SDS011;66010;52.084;5.412;2023-02-11T03:29:58;13.38;;;3.30;;
65924;SDS011;66010;52.084;5.412;2023-02-11T03:32:28;12.75;;;3.22;;
65924;SDS011;66010;52.084;5.412;2023-02-11T03:35:13;12.13;;;3.00;;
65924;SDS011;66010;52.084;5.412;2023-02-11T03:40:12;17.83;;;3.70;;
65924;SDS011;66010;52.084;5.412;2023-02-11T03:43:04;11.68;;;3.15;;
65924;SDS011;66010;52.084;5.412;2023-02-11T03:45:27;12.85;;;3.50;;
65924;SDS011;66010;52.084;5.412;2023-02-11T03:47:55;13.32;;;3.85;;
65924;SDS011;66010;52.084;5.412;2023-02-11T03:50:23;12.57;;;3.20;;
65924;SDS011;66010;52.084;5.412;2023-02-11T03:52:51;9.93;;;3.20;;
65924;SDS011;66010;52.084;5.412;2023-02-11T03:55:18;13.45;;;3.63;;
65924;SDS011;66010;52.084;5.412;2023-02-11T04:00:12;13.23;;;4.20;;
65924;SDS011;66010;52.084;5.412;2023-02-11T04:02:39;12.27;;;3.03;;
65924;SDS011;66010;52.084;5.412;2023-02-11T04:05:07;12.15;;;3.72;;
65924;SDS011;66010;52.084;5.412;2023-02-11T04:07:33;11.88;;;2.83;;
65924;SDS011;66010;52.084;5.412;2023-02-11T04:10:00;10.85;;;3.30;;
65924;SDS011;66010;52.084;5.412;2023-02-11T04:12:26;12.23;;;3.60;;
65924;SDS011;66010;52.084;5.412;2023-02-11T04:14:53;13.15;;;3.30;;
65924;SDS011;66010;52.084;5.412;2023-02-11T04:17:19;11.45;;;3.20;;
65924;SDS011;66010;52.084;5.412;2023-02-11T04:19:46;11.82;;;3.70;;
65924;SDS011;66010;52.084;5.412;2023-02-11T04:22:12;10.10;;;3.33;;
65924;SDS011;66010;52.084;5.412;2023-02-11T04:24:39;8.13;;;2.88;;
65924;SDS011;66010;52.084;5.412;2023-02-11T04:27:05;10.40;;;3.65;;
65924;SDS011;66010;52.084;5.412;2023-02-11T04:29:32;10.88;;;4.10;;
65924;SDS011;66010;52.084;5.412;2023-02-11T04:31:58;11.43;;;3.97;;
65924;SDS011;66010;52.084;5.412;2023-02-11T04:34:25;13.50;;;3.60;;
65924;SDS011;66010;52.084;5.412;2023-02-11T04:36:51;11.88;;;3.78;;
65924;SDS011;66010;52.084;5.412;2023-02-11T04:39:18;10.00;;;3.78;;
65924;SDS011;66010;52.084;5.412;2023-02-11T04:41:44;11.65;;;2.90;;
65924;SDS011;66010;52.084;5.412;2023-02-11T04:44:11;11.60;;;3.65;;
65924;SDS011;66010;52.084;5.412;2023-02-11T04:46:37;9.82;;;2.92;;
65924;SDS011;66010;52.084;5.412;2023-02-11T04:49:04;12.95;;;3.90;;
65924;SDS011;66010;52.084;5.412;2023-02-11T04:51:31;12.13;;;3.30;;
65924;SDS011;66010;52.084;5.412;2023-02-11T04:53:57;11.73;;;3.70;;
65924;SDS011;66010;52.084;5.412;2023-02-11T04:56:24;13.02;;;4.13;;
65924;SDS011;66010;52.084;5.412;2023-02-11T04:58:50;13.50;;;4.10;;
65924;SDS011;66010;52.084;5.412;2023-02-11T05:01:17;11.07;;;3.42;;
65924;SDS011;66010;52.084;5.412;2023-02-11T05:03:44;11.93;;;3.60;;
65924;SDS011;66010;52.084;5.412;2023-02-11T05:06:10;14.57;;;4.18;;
65924;SDS011;66010;52.084;5.412;2023-02-11T05:08:37;13.90;;;3.70;;
65924;SDS011;66010;52.084;5.412;2023-02-11T05:11:04;13.18;;;4.43;;
65924;SDS011;66010;52.084;5.412;2023-02-11T05:13:30;16.50;;;3.78;;
65924;SDS011;66010;52.084;5.412;2023-02-11T05:15:57;11.65;;;3.63;;
65924;SDS011;66010;52.084;5.412;2023-02-11T05:18:23;10.98;;;3.40;;
65924;SDS011;66010;52.084;5.412;2023-02-11T05:20:50;11.48;;;4.45;;
65924;SDS011;66010;52.084;5.412;2023-02-11T05:23:16;20.52;;;4.75;;
65924;SDS011;66010;52.084;5.412;2023-02-11T05:25:42;10.40;;;3.65;;
65924;SDS011;66010;52.084;5.412;2023-02-11T05:28:09;12.27;;;3.70;;
65924;SDS011;66010;52.084;5.412;2023-02-11T05:30:35;15.00;;;4.15;;
65924;SDS011;66010;52.084;5.412;2023-02-11T05:33:02;11.45;;;3.15;;
65924;SDS011;66010;52.084;5.412;2023-02-11T05:35:28;12.93;;;4.15;;
65924;SDS011;66010;52.084;5.412;2023-02-11T05:37:55;14.95;;;4.28;;
65924;SDS011;66010;52.084;5.412;2023-02-11T05:40:21;13.82;;;4.05;;
65924;SDS011;66010;52.084;5.412;2023-02-11T05:42:48;13.18;;;4.28;;
65924;SDS011;66010;52.084;5.412;2023-02-11T05:45:14;11.32;;;4.05;;
65924;SDS011;66010;52.084;5.412;2023-02-11T05:47:40;14.43;;;5.18;;
65924;SDS011;66010;52.084;5.412;2023-02-11T05:50:07;11.27;;;3.45;;
65924;SDS011;66010;52.084;5.412;2023-02-11T05:52:34;12.07;;;4.70;;
65924;SDS011;66010;52.084;5.412;2023-02-11T05:55:01;11.48;;;4.13;;
65924;SDS011;66010;52.084;5.412;2023-02-11T05:57:27;12.82;;;4.78;;
65924;SDS011;66010;52.084;5.412;2023-02-11T05:59:53;15.75;;;4.68;;
65924;SDS011;66010;52.084;5.412;2023-02-11T06:02:20;13.30;;;5.05;;
65924;SDS011;66010;52.084;5.412;2023-02-11T06:04:46;13.10;;;4.82;;
65924;SDS011;66010;52.084;5.412;2023-02-11T06:07:13;14.52;;;4.85;;
65924;SDS011;66010;52.084;5.412;2023-02-11T06:09:39;15.00;;;4.30;;
65924;SDS011;66010;52.084;5.412;2023-02-11T06:12:06;13.48;;;4.13;;
65924;SDS011;66010;52.084;5.412;2023-02-11T06:14:32;15.55;;;4.65;;
65924;SDS011;66010;52.084;5.412;2023-02-11T06:16:59;14.50;;;4.68;;
65924;SDS011;66010;52.084;5.412;2023-02-11T06:19:25;12.55;;;4.93;;
65924;SDS011;66010;52.084;5.412;2023-02-11T06:21:52;14.18;;;4.50;;
65924;SDS011;66010;52.084;5.412;2023-02-11T06:24:18;12.45;;;4.07;;
65924;SDS011;66010;52.084;5.412;2023-02-11T06:27:05;12.82;;;5.15;;
65924;SDS011;66010;52.084;5.412;2023-02-11T06:29:31;13.90;;;4.40;;
65924;SDS011;66010;52.084;5.412;2023-02-11T06:31:57;11.57;;;4.40;;
65924;SDS011;66010;52.084;5.412;2023-02-11T06:34:24;12.68;;;4.40;;
65924;SDS011;66010;52.084;5.412;2023-02-11T06:36:50;10.95;;;4.30;;
65924;SDS011;66010;52.084;5.412;2023-02-11T06:39:17;14.48;;;4.88;;
65924;SDS011;66010;52.084;5.412;2023-02-11T06:41:43;11.35;;;4.97;;
65924;SDS011;66010;52.084;5.412;2023-02-11T06:44:10;13.43;;;4.32;;
65924;SDS011;66010;52.084;5.412;2023-02-11T06:46:36;13.45;;;4.63;;
65924;SDS011;66010;52.084;5.412;2023-02-11T06:49:03;14.07;;;5.57;;
65924;SDS011;66010;52.084;5.412;2023-02-11T06:51:29;13.65;;;5.22;;
65924;SDS011;66010;52.084;5.412;2023-02-11T06:53:56;13.82;;;5.43;;
65924;SDS011;66010;52.084;5.412;2023-02-11T06:56:22;16.17;;;5.45;;
65924;SDS011;66010;52.084;5.412;2023-02-11T06:58:52;12.60;;;4.78;;
65924;SDS011;66010;52.084;5.412;2023-02-11T07:01:20;13.75;;;5.00;;
65924;SDS011;66010;52.084;5.412;2023-02-11T07:03:47;15.25;;;5.25;;
65924;SDS011;66010;52.084;5.412;2023-02-11T07:06:15;16.33;;;5.25;;
65924;SDS011;66010;52.084;5.412;2023-02-11T07:08:41;12.40;;;5.57;;
65924;SDS011;66010;52.084;5.412;2023-02-11T07:11:09;12.10;;;4.68;;
65924;SDS011;66010;52.084;5.412;2023-02-11T07:13:36;12.95;;;4.20;;
65924;SDS011;66010;52.084;5.412;2023-02-11T07:16:06;19.50;;;5.43;;
65924;SDS011;66010;52.084;5.412;2023-02-11T07:18:33;13.50;;;5.38;;
65924;SDS011;66010;52.084;5.412;2023-02-11T07:21:02;12.52;;;4.95;;
65924;SDS011;66010;52.084;5.412;2023-02-11T07:23:29;18.25;;;6.75;;
65924;SDS011;66010;52.084;5.412;2023-02-11T07:25:55;14.60;;;5.25;;
65924;SDS011;66010;52.084;5.412;2023-02-11T07:28:22;13.60;;;4.95;;
65924;SDS011;66010;52.084;5.412;2023-02-11T07:30:48;16.90;;;5.78;;
65924;SDS011;66010;52.084;5.412;2023-02-11T07:33:15;14.65;;;5.63;;
65924;SDS011;66010;52.084;5.412;2023-02-11T07:35:41;16.92;;;6.13;;
65924;SDS011;66010;52.084;5.412;2023-02-11T07:38:08;14.98;;;5.57;;
65924;SDS011;66010;52.084;5.412;2023-02-11T07:40:35;14.07;;;5.53;;
65924;SDS011;66010;52.084;5.412;2023-02-11T07:43:01;17.85;;;5.80;;
65924;SDS011;66010;52.084;5.412;2023-02-11T07:45:28;13.02;;;5.47;;
65924;SDS011;66010;52.084;5.412;2023-02-11T07:47:54;11.80;;;4.75;;
65924;SDS011;66010;52.084;5.412;2023-02-11T07:50:20;15.65;;;6.13;;
65924;SDS011;66010;52.084;5.412;2023-02-11T07:52:47;13.95;;;5.22;;
65924;SDS011;66010;52.084;5.412;2023-02-11T07:55:13;12.85;;;4.80;;
65924;SDS011;66010;52.084;5.412;2023-02-11T07:57:40;12.68;;;5.13;;
65924;SDS011;66010;52.084;5.412;2023-02-11T08:00:07;13.98;;;5.65;;
65924;SDS011;66010;52.084;5.412;2023-02-11T08:02:36;13.18;;;5.72;;
65924;SDS011;66010;52.084;5.412;2023-02-11T08:05:03;15.65;;;6.03;;
65924;SDS011;66010;52.084;5.412;2023-02-11T08:07:29;15.70;;;5.82;;
65924;SDS011;66010;52.084;5.412;2023-02-11T08:09:55;14.18;;;4.50;;
65924;SDS011;66010;52.084;5.412;2023-02-11T08:12:22;14.13;;;5.13;;
65924;SDS011;66010;52.084;5.412;2023-02-11T08:14:48;17.55;;;6.07;;
65924;SDS011;66010;52.084;5.412;2023-02-11T08:17:15;13.00;;;4.93;;
65924;SDS011;66010;52.084;5.412;2023-02-11T08:19:42;17.50;;;6.82;;
65924;SDS011;66010;52.084;5.412;2023-02-11T08:22:08;16.02;;;6.07;;
65924;SDS011;66010;52.084;5.412;2023-02-11T08:24:35;19.35;;;7.80;;
65924;SDS011;66010;52.084;5.412;2023-02-11T08:27:01;21.65;;;8.23;;
65924;SDS011;66010;52.084;5.412;2023-02-11T08:29:28;18.45;;;6.70;;
65924;SDS011;66010;52.084;5.412;2023-02-11T08:31:55;19.67;;;7.53;;
65924;SDS011;66010;52.084;5.412;2023-02-11T08:34:21;15.70;;;5.55;;
65924;SDS011;66010;52.084;5.412;2023-02-11T08:36:48;13.00;;;4.95;;
65924;SDS011;66010;52.084;5.412;2023-02-11T08:39:15;12.43;;;4.97;;
65924;SDS011;66010;52.084;5.412;2023-02-11T08:41:46;11.95;;;4.32;;
65924;SDS011;66010;52.084;5.412;2023-02-11T08:44:14;12.45;;;3.85;;
65924;SDS011;66010;52.084;5.412;2023-02-11T08:46:40;12.10;;;3.95;;
65924;SDS011;66010;52.084;5.412;2023-02-11T08:49:07;12.57;;;3.60;;
65924;SDS011;66010;52.084;5.412;2023-02-11T08:51:33;10.65;;;3.58;;
65924;SDS011;66010;52.084;5.412;2023-02-11T08:54:00;11.98;;;3.00;;
65924;SDS011;66010;52.084;5.412;2023-02-11T08:56:27;9.05;;;2.88;;
65924;SDS011;66010;52.084;5.412;2023-02-11T08:58:54;9.38;;;3.03;;
65924;SDS011;66010;52.084;5.412;2023-02-11T09:01:21;8.18;;;2.70;;
65924;SDS011;66010;52.084;5.412;2023-02-11T09:03:48;10.15;;;3.15;;
65924;SDS011;66010;52.084;5.412;2023-02-11T09:06:15;9.10;;;2.92;;
65924;SDS011;66010;52.084;5.412;2023-02-11T09:08:44;8.27;;;2.75;;
65924;SDS011;66010;52.084;5.412;2023-02-11T09:11:11;9.13;;;3.05;;
65924;SDS011;66010;52.084;5.412;2023-02-11T09:13:39;9.98;;;3.05;;
65924;SDS011;66010;52.084;5.412;2023-02-11T09:16:05;9.02;;;2.80;;
65924;SDS011;66010;52.084;5.412;2023-02-11T09:18:32;10.38;;;3.10;;
65924;SDS011;66010;52.084;5.412;2023-02-11T09:21:06;10.48;;;3.15;;
65924;SDS011;66010;52.084;5.412;2023-02-11T09:23:33;9.50;;;2.78;;
65924;SDS011;66010;52.084;5.412;2023-02-11T09:26:06;7.88;;;2.55;;
65924;SDS011;66010;52.084;5.412;2023-02-11T09:28:34;8.70;;;2.55;;
65924;SDS011;66010;52.084;5.412;2023-02-11T09:31:05;7.30;;;2.95;;
65924;SDS011;66010;52.084;5.412;2023-02-11T09:33:32;7.38;;;2.65;;
65924;SDS011;66010;52.084;5.412;2023-02-11T09:36:02;9.15;;;3.00;;
65924;SDS011;66010;52.084;5.412;2023-02-11T09:38:28;7.07;;;2.67;;
65924;SDS011;66010;52.084;5.412;2023-02-11T09:40:55;8.23;;;2.63;;
65924;SDS011;66010;52.084;5.412;2023-02-11T09:43:23;8.90;;;2.80;;
65924;SDS011;66010;52.084;5.412;2023-02-11T09:45:53;7.13;;;2.60;;
65924;SDS011;66010;52.084;5.412;2023-02-11T09:48:20;8.57;;;2.85;;
65924;SDS011;66010;52.084;5.412;2023-02-11T09:51:05;10.23;;;2.88;;
65924;SDS011;66010;52.084;5.412;2023-02-11T09:53:38;7.00;;;2.45;;
65924;SDS011;66010;52.084;5.412;2023-02-11T09:56:10;8.02;;;2.90;;
65924;SDS011;66010;52.084;5.412;2023-02-11T09:58:37;8.52;;;2.58;;
65924;SDS011;66010;52.084;5.412;2023-02-11T10:01:14;7.45;;;2.38;;
65924;SDS011;66010;52.084;5.412;2023-02-11T10:21:56;7.47;;;2.30;;
65924;SDS011;66010;52.084;5.412;2023-02-11T10:24:24;5.55;;;2.17;;
65924;SDS011;66010;52.084;5.412;2023-02-11T10:26:53;8.15;;;2.42;;
65924;SDS011;66010;52.084;5.412;2023-02-11T10:31:55;6.20;;;2.33;;
65924;SDS011;66010;52.084;5.412;2023-02-11T10:34:23;5.97;;;2.28;;
65924;SDS011;66010;52.084;5.412;2023-02-11T10:36:50;7.07;;;2.30;;
65924;SDS011;66010;52.084;5.412;2023-02-11T10:39:21;7.65;;;2.50;;
65924;SDS011;66010;52.084;5.412;2023-02-11T10:42:07;6.78;;;2.10;;
65924;SDS011;66010;52.084;5.412;2023-02-11T10:44:40;4.47;;;1.85;;
65924;SDS011;66010;52.084;5.412;2023-02-11T10:47:12;4.45;;;1.95;;
65924;SDS011;66010;52.084;5.412;2023-02-11T10:54:39;4.25;;;1.83;;
65924;SDS011;66010;52.084;5.412;2023-02-11T10:57:06;5.73;;;1.90;;
65924;SDS011;66010;52.084;5.412;2023-02-11T10:59:33;6.47;;;1.88;;
65924;SDS011;66010;52.084;5.412;2023-02-11T11:02:04;4.38;;;2.00;;
65924;SDS011;66010;52.084;5.412;2023-02-11T11:04:37;5.25;;;2.00;;
65924;SDS011;66010;52.084;5.412;2023-02-11T11:09:48;5.53;;;1.98;;
65924;SDS011;66010;52.084;5.412;2023-02-11T11:12:35;5.43;;;2.00;;
65924;SDS011;66010;52.084;5.412;2023-02-11T11:15:15;5.10;;;1.90;;
65924;SDS011;66010;52.084;5.412;2023-02-11T11:17:44;4.60;;;2.03;;
65924;SDS011;66010;52.084;5.412;2023-02-11T11:22:37;5.85;;;2.13;;
65924;SDS011;66010;52.084;5.412;2023-02-11T11:25:04;4.80;;;1.83;;
65924;SDS011;66010;52.084;5.412;2023-02-11T11:27:31;5.70;;;1.92;;
65924;SDS011;66010;52.084;5.412;2023-02-11T11:29:57;5.57;;;1.90;;
65924;SDS011;66010;52.084;5.412;2023-02-11T11:32:30;5.07;;;2.00;;
65924;SDS011;66010;52.084;5.412;2023-02-11T11:35:03;4.93;;;2.03;;
65924;SDS011;66010;52.084;5.412;2023-02-11T11:37:33;5.07;;;2.00;;
65924;SDS011;66010;52.084;5.412;2023-02-11T11:42:37;4.25;;;1.90;;
65924;SDS011;66010;52.084;5.412;2023-02-11T11:47:47;10.95;;;2.10;;
65924;SDS011;66010;52.084;5.412;2023-02-11T11:52:48;10.27;;;2.30;;
65924;SDS011;66010;52.084;5.412;2023-02-11T11:55:26;7.38;;;2.40;;
65924;SDS011;66010;52.084;5.412;2023-02-11T11:57:54;9.13;;;2.20;;
65924;SDS011;66010;52.084;5.412;2023-02-11T12:00:30;6.45;;;2.20;;
65924;SDS011;66010;52.084;5.412;2023-02-11T12:03:07;7.35;;;2.33;;
65924;SDS011;66010;52.084;5.412;2023-02-11T12:16:08;5.65;;;1.90;;
65924;SDS011;66010;52.084;5.412;2023-02-11T12:21:42;7.75;;;1.80;;
65924;SDS011;66010;52.084;5.412;2023-02-11T12:27:03;6.00;;;1.77;;
65924;SDS011;66010;52.084;5.412;2023-02-11T12:32:24;5.40;;;1.67;;
65924;SDS011;66010;52.084;5.412;2023-02-11T12:40:25;8.15;;;1.83;;
65924;SDS011;66010;52.084;5.412;2023-02-11T12:43:00;5.47;;;1.80;;
65924;SDS011;66010;52.084;5.412;2023-02-11T12:45:45;4.28;;;1.77;;
65924;SDS011;66010;52.084;5.412;2023-02-11T12:48:21;4.32;;;1.83;;
65924;SDS011;66010;52.084;5.412;2023-02-11T12:53:35;6.65;;;2.03;;
65924;SDS011;66010;52.084;5.412;2023-02-11T12:56:11;5.15;;;1.83;;
65924;SDS011;66010;52.084;5.412;2023-02-11T12:58:39;6.43;;;2.30;;
65924;SDS011;66010;52.084;5.412;2023-02-11T13:01:20;7.32;;;2.72;;
65924;SDS011;66010;52.084;5.412;2023-02-11T13:04:04;7.07;;;2.83;;
65924;SDS011;66010;52.084;5.412;2023-02-11T13:06:39;6.35;;;3.13;;
65924;SDS011;66010;52.084;5.412;2023-02-11T13:09:10;6.82;;;3.03;;
65924;SDS011;66010;52.084;5.412;2023-02-11T13:11:39;6.38;;;3.03;;
65924;SDS011;66010;52.084;5.412;2023-02-11T13:16:34;6.57;;;3.45;;
65924;SDS011;66010;52.084;5.412;2023-02-11T13:27:23;7.03;;;4.30;;
65924;SDS011;66010;52.084;5.412;2023-02-11T13:35:40;7.22;;;3.83;;
65924;SDS011;66010;52.084;5.412;2023-02-11T13:38:17;6.70;;;3.60;;
65924;SDS011;66010;52.084;5.412;2023-02-11T13:40:44;6.65;;;3.60;;
65924;SDS011;66010;52.084;5.412;2023-02-11T13:43:24;6.72;;;3.83;;
65924;SDS011;66010;52.084;5.412;2023-02-11T13:45:57;7.07;;;4.03;;
65924;SDS011;66010;52.084;5.412;2023-02-11T13:48:25;7.10;;;4.07;;
65924;SDS011;66010;52.084;5.412;2023-02-11T13:50:56;7.88;;;3.80;;
65924;SDS011;66010;52.084;5.412;2023-02-11T13:53:24;7.95;;;3.83;;
65924;SDS011;66010;52.084;5.412;2023-02-11T13:55:52;6.80;;;3.60;;
65924;SDS011;66010;52.084;5.412;2023-02-11T14:00:52;6.60;;;3.55;;
65924;SDS011;66010;52.084;5.412;2023-02-11T14:19:31;8.57;;;4.90;;
65924;SDS011;66010;52.084;5.412;2023-02-11T14:22:21;9.25;;;5.20;;
65924;SDS011;66010;52.084;5.412;2023-02-11T14:24:47;8.55;;;4.95;;
65924;SDS011;66010;52.084;5.412;2023-02-11T14:27:23;7.80;;;4.93;;
65924;SDS011;66010;52.084;5.412;2023-02-11T14:35:15;10.25;;;4.90;;
65924;SDS011;66010;52.084;5.412;2023-02-11T14:37:48;10.05;;;4.40;;
65924;SDS011;66010;52.084;5.412;2023-02-11T14:40:31;8.18;;;4.40;;
65924;SDS011;66010;52.084;5.412;2023-02-11T14:45:55;7.20;;;3.92;;
65924;SDS011;66010;52.084;5.412;2023-02-11T14:48:26;6.50;;;3.90;;
65924;SDS011;66010;52.084;5.412;2023-02-11T14:50:56;6.13;;;3.65;;
65924;SDS011;66010;52.084;5.412;2023-02-11T14:53:24;7.18;;;3.83;;
65924;SDS011;66010;52.084;5.412;2023-02-11T14:55:51;6.85;;;3.72;;
65924;SDS011;66010;52.084;5.412;2023-02-11T15:08:36;7.10;;;3.28;;
65924;SDS011;66010;52.084;5.412;2023-02-11T15:11:06;6.25;;;3.35;;
65924;SDS011;66010;52.084;5.412;2023-02-11T15:13:34;6.38;;;3.20;;
65924;SDS011;66010;52.084;5.412;2023-02-11T15:16:05;5.80;;;3.15;;
65924;SDS011;66010;52.084;5.412;2023-02-11T15:18:34;5.80;;;3.00;;
65924;SDS011;66010;52.084;5.412;2023-02-11T15:21:02;6.05;;;3.08;;
65924;SDS011;66010;52.084;5.412;2023-02-11T15:23:29;6.20;;;3.05;;
65924;SDS011;66010;52.084;5.412;2023-02-11T15:25:57;5.35;;;3.00;;
65924;SDS011;66010;52.084;5.412;2023-02-11T15:28:29;5.97;;;3.20;;
65924;SDS011;66010;52.084;5.412;2023-02-11T15:31:03;7.38;;;3.17;;
65924;SDS011;66010;52.084;5.412;2023-02-11T15:33:31;5.47;;;3.10;;
65924;SDS011;66010;52.084;5.412;2023-02-11T15:35:58;5.72;;;3.00;;
65924;SDS011;66010;52.084;5.412;2023-02-11T15:38:25;6.22;;;3.00;;
65924;SDS011;66010;52.084;5.412;2023-02-11T15:40:56;6.88;;;3.45;;
65924;SDS011;66010;52.084;5.412;2023-02-11T15:43:23;6.30;;;3.30;;
65924;SDS011;66010;52.084;5.412;2023-02-11T15:48:23;6.85;;;3.38;;
65924;SDS011;66010;52.084;5.412;2023-02-11T15:50:56;6.53;;;3.10;;
65924;SDS011;66010;52.084;5.412;2023-02-11T15:53:26;6.07;;;3.20;;
65924;SDS011;66010;52.084;5.412;2023-02-11T15:55:57;5.60;;;3.33;;
65924;SDS011;66010;52.084;5.412;2023-02-11T15:58:25;6.13;;;3.28;;
65924;SDS011;66010;52.084;5.412;2023-02-11T16:00:51;5.07;;;3.17;;
65924;SDS011;66010;52.084;5.412;2023-02-11T16:03:25;7.60;;;3.45;;
65924;SDS011;66010;52.084;5.412;2023-02-11T16:05:54;6.65;;;3.53;;
65924;SDS011;66010;52.084;5.412;2023-02-11T16:08:23;5.45;;;3.05;;
65924;SDS011;66010;52.084;5.412;2023-02-11T16:10:57;6.10;;;3.30;;
65924;SDS011;66010;52.084;5.412;2023-02-11T16:13:27;7.05;;;2.85;;
65924;SDS011;66010;52.084;5.412;2023-02-11T16:15:56;8.70;;;3.13;;
65924;SDS011;66010;52.084;5.412;2023-02-11T16:18:28;9.02;;;3.22;;
65924;SDS011;66010;52.084;5.412;2023-02-11T16:21:05;7.05;;;3.20;;
65924;SDS011;66010;52.084;5.412;2023-02-11T16:23:33;9.93;;;3.22;;
65924;SDS011;66010;52.084;5.412;2023-02-11T16:26:05;7.50;;;2.92;;
65924;SDS011;66010;52.084;5.412;2023-02-11T16:28:34;9.30;;;3.22;;
65924;SDS011;66010;52.084;5.412;2023-02-11T16:31:01;8.07;;;2.90;;
65924;SDS011;66010;52.084;5.412;2023-02-11T16:33:28;7.05;;;2.80;;
65924;SDS011;66010;52.084;5.412;2023-02-11T16:35:55;6.20;;;2.90;;
65924;SDS011;66010;52.084;5.412;2023-02-11T16:38:22;6.53;;;2.78;;
65924;SDS011;66010;52.084;5.412;2023-02-11T16:40:49;7.28;;;2.72;;
65924;SDS011;66010;52.084;5.412;2023-02-11T16:43:17;5.93;;;2.88;;
65924;SDS011;66010;52.084;5.412;2023-02-11T16:45:44;8.90;;;2.80;;
65924;SDS011;66010;52.084;5.412;2023-02-11T16:48:12;7.47;;;2.90;;
65924;SDS011;66010;52.084;5.412;2023-02-11T16:50:42;8.35;;;2.63;;
65924;SDS011;66010;52.084;5.412;2023-02-11T16:53:09;5.95;;;2.83;;
65924;SDS011;66010;52.084;5.412;2023-02-11T16:55:36;6.38;;;2.75;;
65924;SDS011;66010;52.084;5.412;2023-02-11T17:00:31;6.50;;;2.88;;
65924;SDS011;66010;52.084;5.412;2023-02-11T17:02:58;5.13;;;2.60;;
65924;SDS011;66010;52.084;5.412;2023-02-11T17:05:24;6.93;;;2.63;;
65924;SDS011;66010;52.084;5.412;2023-02-11T17:07:51;6.82;;;2.80;;
65924;SDS011;66010;52.084;5.412;2023-02-11T17:10:20;5.85;;;2.80;;
65924;SDS011;66010;52.084;5.412;2023-02-11T17:12:46;6.45;;;2.78;;
65924;SDS011;66010;52.084;5.412;2023-02-11T17:15:13;6.13;;;2.65;;
65924;SDS011;66010;52.084;5.412;2023-02-11T17:17:40;8.88;;;2.60;;
65924;SDS011;66010;52.084;5.412;2023-02-11T17:20:06;5.65;;;2.78;;
65924;SDS011;66010;52.084;5.412;2023-02-11T17:22:34;5.57;;;2.67;;
65924;SDS011;66010;52.084;5.412;2023-02-11T17:25:01;6.55;;;2.65;;
65924;SDS011;66010;52.084;5.412;2023-02-11T17:27:27;6.38;;;2.70;;
65924;SDS011;66010;52.084;5.412;2023-02-11T17:29:54;6.22;;;2.88;;
65924;SDS011;66010;52.084;5.412;2023-02-11T17:32:20;6.60;;;3.10;;
65924;SDS011;66010;52.084;5.412;2023-02-11T17:34:47;6.28;;;3.00;;
65924;SDS011;66010;52.084;5.412;2023-02-11T17:37:13;8.90;;;3.50;;